createdAt,value
2017-09-15T00:06:10.512Z,83
2017-09-15T00:18:09.559Z,83
2017-09-15T00:30:08.704Z,83
2017-09-15T00:42:39.380Z,83
2017-09-15T00:54:36.741Z,83
2017-09-15T01:06:34.125Z,83
2017-09-15T01:18:30.173Z,83
2017-09-15T01:30:28.237Z,83
2017-09-15T01:42:24.345Z,83
2017-09-15T01:54:21.870Z,83
2017-09-15T02:06:19.670Z,81
2017-09-15T02:18:17.256Z,83
2017-09-15T02:30:15.565Z,79
2017-09-15T02:42:11.710Z,81
2017-09-15T02:54:10.136Z,83
2017-09-15T03:06:06.775Z,83
2017-09-15T03:18:02.998Z,83
2017-09-15T03:30:01.813Z,83
2017-09-15T03:41:59.642Z,83
2017-09-15T03:53:58.255Z,83
2017-09-15T04:05:55.879Z,82
2017-09-15T04:17:56.595Z,82
2017-09-15T04:29:56.389Z,81
2017-09-15T04:41:56.081Z,83
2017-09-15T04:53:53.706Z,82
2017-09-15T05:05:51.406Z,83
2017-09-15T05:17:50.264Z,83
2017-09-15T05:29:50.003Z,83
2017-09-15T05:41:51.565Z,82
2017-09-15T05:53:51.589Z,82
2017-09-15T06:05:51.394Z,81
2017-09-15T06:17:51.111Z,82
2017-09-15T06:29:51.574Z,79
2017-09-15T06:41:56.060Z,82
2017-09-15T06:53:56.874Z,82
2017-09-15T07:05:58.839Z,82
2017-09-15T07:18:05.387Z,81
2017-09-15T07:30:12.931Z,82
2017-09-15T07:42:20.296Z,82
2017-09-15T07:54:21.782Z,82
2017-09-15T08:06:23.004Z,82
2017-09-15T08:18:25.532Z,82
2017-09-15T08:30:28.596Z,80
2017-09-15T08:42:29.595Z,82
2017-09-15T08:54:28.823Z,82
2017-09-15T09:06:30.854Z,82
2017-09-15T09:18:30.205Z,81
2017-09-15T09:30:32.940Z,82
2017-09-15T09:42:31.694Z,81
2017-09-15T09:54:32.476Z,82
2017-09-15T10:06:35.999Z,82
2017-09-15T10:18:41.961Z,81
2017-09-15T10:31:13.127Z,81
2017-09-15T10:43:20.685Z,81
2017-09-15T10:55:23.528Z,81
2017-09-15T11:07:24.862Z,81
2017-09-15T11:19:25.540Z,81
2017-09-15T11:31:28.405Z,81
2017-09-15T11:43:29.881Z,79
2017-09-15T11:55:30.391Z,81
2017-09-15T12:07:30.781Z,77
2017-09-15T12:20:04.470Z,81
2017-09-15T12:32:05.470Z,81
2017-09-15T12:44:04.398Z,81
2017-09-15T12:56:02.618Z,81
2017-09-15T13:08:02.544Z,78
2017-09-15T13:20:04.714Z,80
2017-09-15T13:32:11.402Z,81
2017-09-15T13:44:12.069Z,81
2017-09-15T13:56:10.834Z,79
2017-09-15T14:08:10.568Z,81
2017-09-15T14:20:09.101Z,81
2017-09-15T14:32:07.620Z,81
2017-09-15T14:44:06.088Z,81
2017-09-15T14:56:04.936Z,79
2017-09-15T15:08:04.729Z,81
2017-09-15T15:20:33.707Z,80
2017-09-15T15:32:32.145Z,81
2017-09-15T15:44:29.138Z,80
2017-09-15T16:08:34.021Z,80
2017-09-15T16:20:32.715Z,80
2017-09-15T16:32:37.581Z,77
2017-09-15T16:44:39.488Z,80
2017-09-15T16:56:36.483Z,80
2017-09-15T17:08:36.026Z,80
2017-09-15T17:20:32.393Z,80
2017-09-15T17:32:30.561Z,79
2017-09-15T17:44:30.358Z,80
2017-09-15T17:56:27.569Z,80
2017-09-15T18:08:26.921Z,80
2017-09-15T18:20:26.731Z,76
2017-09-15T18:32:53.499Z,80
2017-09-15T18:44:54.629Z,79
2017-09-15T18:56:52.991Z,79
2017-09-15T19:08:52.282Z,79
2017-09-15T19:20:50.598Z,79
2017-09-15T19:32:49.440Z,79
2017-09-15T19:44:49.973Z,79
2017-09-15T19:56:47.940Z,79
2017-09-15T20:08:48.492Z,79
2017-09-15T20:20:48.557Z,78
2017-09-15T20:32:45.626Z,78
2017-09-15T20:44:43.037Z,79
2017-09-15T20:56:40.314Z,79
2017-09-15T21:08:37.202Z,79
2017-09-15T21:20:34.409Z,79
2017-09-15T21:32:31.543Z,79
2017-09-15T21:44:30.246Z,79
2017-09-15T21:56:28.346Z,78
2017-09-15T22:08:26.561Z,79
2017-09-15T22:20:22.372Z,79
2017-09-15T22:32:19.460Z,79
2017-09-15T22:44:16.942Z,78
2017-09-15T22:56:14.385Z,79
2017-09-15T23:08:12.791Z,78
2017-09-15T23:20:10.006Z,79
2017-09-15T23:32:05.943Z,79
2017-09-15T23:44:03.167Z,78
2017-09-15T23:56:01.531Z,79
